Time;durP1;ratioP1;P1;durP2;ratioP2;P2;SDS_P1;SDS_P2;PMS_P1;PMS_P2;Temp;Humidity;BMP_temperature;BMP_pressure;BME280_temperature;BME280_humidity;BME280_pressure;Samples;Min_cycle;Max_cycle;Signal;HPM_P1;HPM_P2
2022/01/18 00:00:46;;;;;;;35.55;22.08;;;;;;;9.85;40.03;103532.44;4992698;28;20026;-75
2022/01/18 00:03:12;;;;;;;35.25;23.23;;;;;;;9.77;39.75;103524.63;4992655;28;20504;-75
2022/01/18 00:05:38;;;;;;;33.20;21.90;;;;;;;9.86;39.90;103528.63;4992536;28;20404;-75
2022/01/18 00:08:05;;;;;;;37.25;23.20;;;;;;;9.85;40.02;103524.25;4992568;28;20421;-75
2022/01/18 00:10:34;;;;;;;44.10;26.23;;;;;;;9.88;39.89;103531.94;4995439;28;20022;-75
2022/01/18 00:15:43;;;;;;;43.15;24.98;;;;;;;9.93;39.81;103523.88;4996334;28;20037;-75
2022/01/18 00:18:12;;;;;;;41.63;25.75;;;;;;;9.93;40.01;103533.97;4996010;28;20030;-75
2022/01/18 00:21:13;;;;;;;35.30;25.45;;;;;;;9.89;39.89;103539.06;4995954;28;20106;-75
2022/01/18 00:23:40;;;;;;;35.20;24.10;;;;;;;9.98;39.95;103545.00;4995793;28;20488;-76
2022/01/18 00:26:08;;;;;;;34.75;21.65;;;;;;;9.88;39.73;103534.66;4995889;28;20025;-75
2022/01/18 00:28:37;;;;;;;38.60;20.80;;;;;;;9.77;39.77;103538.25;4994868;28;20026;-76
2022/01/18 00:33:49;;;;;;;35.47;21.85;;;;;;;9.78;39.67;103525.44;4995859;28;20026;-75
2022/01/18 00:36:28;;;;;;;41.70;22.30;;;;;;;9.73;39.80;103529.72;4995159;28;20046;-75
2022/01/18 00:38:56;;;;;;;36.58;21.88;;;;;;;9.71;39.66;103522.84;4995712;28;20031;-75
2022/01/18 00:41:24;;;;;;;31.97;21.10;;;;;;;9.72;39.81;103516.31;4995846;28;20381;-75
2022/01/18 00:43:51;;;;;;;35.90;21.50;;;;;;;9.64;40.14;103509.31;4995522;28;20076;-75
2022/01/18 00:46:19;;;;;;;31.35;22.77;;;;;;;9.67;39.88;103506.13;4995473;28;20106;-75
2022/01/18 00:48:54;;;;;;;33.60;20.42;;;;;;;9.65;39.98;103508.22;4995443;28;20045;-75
2022/01/18 00:51:20;;;;;;;31.02;21.42;;;;;;;9.63;40.05;103501.38;4995446;28;20380;-75
2022/01/18 00:53:47;;;;;;;27.60;16.33;;;;;;;9.59;39.96;103500.16;4995438;28;20023;-75
2022/01/18 00:56:21;;;;;;;28.53;16.73;;;;;;;9.63;39.77;103491.28;4995335;28;20026;-75
2022/01/18 00:58:49;;;;;;;31.50;15.35;;;;;;;9.71;39.92;103498.25;4995445;28;20117;-75
2022/01/18 01:01:17;;;;;;;29.50;15.80;;;;;;;9.73;39.77;103496.13;4995303;28;20065;-76
2022/01/18 01:03:44;;;;;;;25.73;16.13;;;;;;;9.74;40.02;103484.13;4995214;28;20034;-75
2022/01/18 01:06:13;;;;;;;31.27;17.10;;;;;;;9.67;40.16;103477.97;4995186;28;20053;-75
2022/01/18 01:08:39;;;;;;;25.02;15.02;;;;;;;9.66;40.21;103470.84;4995134;28;20436;-75
2022/01/18 01:11:07;;;;;;;23.52;14.25;;;;;;;9.84;40.18;103475.34;4995037;28;20037;-75
2022/01/18 01:13:35;;;;;;;31.15;20.27;;;;;;;9.80;39.88;103471.41;4995001;28;20034;-75
2022/01/18 01:32:44;;;;;;;37.00;21.73;;;;;;;9.65;39.84;103442.72;4994675;28;20092;-75
2022/01/18 01:45:31;;;;;;;29.80;21.30;;;;;;;9.70;39.84;103453.75;4994459;28;20133;-75
2022/01/18 01:48:00;;;;;;;35.58;23.02;;;;;;;9.69;39.93;103452.09;4994403;28;20113;-75
2022/01/18 01:50:44;;;;;;;24.73;16.25;;;;;;;9.63;40.24;103447.59;4994341;28;20034;-75
2022/01/18 01:53:13;;;;;;;34.17;22.53;;;;;;;9.76;39.79;103446.50;4994216;28;20026;-75
2022/01/18 01:55:39;;;;;;;40.05;22.25;;;;;;;9.65;40.15;103444.63;4992952;28;20027;-75
2022/01/18 01:58:08;;;;;;;33.73;21.50;;;;;;;9.56;40.29;103437.88;4994110;28;20035;-75
2022/01/18 02:00:44;;;;;;;29.30;22.00;;;;;;;9.54;40.10;103429.94;4994135;28;20391;-75
2022/01/18 02:03:09;;;;;;;32.30;20.10;;;;;;;9.53;40.19;103427.44;4992800;28;20018;-75
2022/01/18 02:05:35;;;;;;;29.90;18.70;;;;;;;9.57;40.10;103423.97;4994053;28;20025;-75
2022/01/18 02:08:01;;;;;;;32.03;19.43;;;;;;;9.55;40.21;103414.38;4993961;28;20026;-75
2022/01/18 02:10:26;;;;;;;30.88;19.17;;;;;;;9.58;40.15;103411.97;4993947;28;20073;-75
2022/01/18 02:12:59;;;;;;;30.27;19.13;;;;;;;9.42;40.41;103410.84;4993963;28;20026;-75
2022/01/18 02:15:25;;;;;;;31.35;19.08;;;;;;;9.42;40.42;103413.56;4993916;28;20018;-74
2022/01/18 02:23:30;;;;;;;26.33;16.83;;;;;;;9.50;40.27;103420.53;4993771;28;20041;-75
2022/01/18 02:25:59;;;;;;;28.42;18.30;;;;;;;9.53;40.31;103427.44;4993607;28;20535;-75
2022/01/18 02:28:26;;;;;;;28.77;18.40;;;;;;;9.52;40.26;103417.56;4993607;28;20031;-75
2022/01/18 02:30:52;;;;;;;24.50;17.20;;;;;;;9.52;40.27;103417.56;4993499;28;20022;-75
2022/01/18 02:33:18;;;;;;;30.23;19.17;;;;;;;9.51;40.28;103407.72;4993516;28;20388;-76
2022/01/18 02:35:47;;;;;;;31.98;20.25;;;;;;;9.48;40.33;103406.31;4991856;28;20069;-75
2022/01/18 02:38:13;;;;;;;33.20;19.08;;;;;;;9.45;40.41;103401.34;4992040;28;20046;-80
2022/01/18 02:40:41;;;;;;;29.13;18.90;;;;;;;9.51;40.40;103407.72;4992279;28;20034;-76
2022/01/18 02:45:58;;;;;;;27.33;18.35;;;;;;;9.46;40.53;103403.00;4993689;28;20113;-76
2022/01/18 02:48:26;;;;;;;27.65;18.67;;;;;;;9.47;40.53;103398.38;4993362;28;20069;-75
2022/01/18 02:50:52;;;;;;;26.77;16.30;;;;;;;9.48;40.56;103397.31;4993332;28;20109;-81
2022/01/18 02:53:22;;;;;;;28.45;17.13;;;;;;;9.45;40.38;103401.34;4993259;28;20018;-75
2022/01/18 02:56:01;;;;;;;29.88;15.35;;;;;;;9.42;40.64;103397.19;4993543;28;20405;-75
2022/01/18 02:58:32;;;;;;;26.75;14.85;;;;;;;9.52;40.57;103396.59;4993195;28;20027;-75
2022/01/18 03:03:44;;;;;;;30.70;17.15;;;;;;;9.42;40.61;103385.44;4993269;28;20093;-74
2022/01/18 03:06:10;;;;;;;23.03;16.00;;;;;;;9.44;40.58;103383.28;4993123;28;20031;-75
2022/01/18 03:08:35;;;;;;;26.87;15.40;;;;;;;9.40;40.63;103382.13;4993204;28;20030;-75
2022/01/18 03:11:03;;;;;;;24.55;16.15;;;;;;;9.43;40.52;103390.66;4993015;28;20037;-75
2022/01/18 03:13:28;;;;;;;28.25;15.98;;;;;;;9.42;40.61;103393.63;4993084;28;20048;-75
2022/01/18 03:15:57;;;;;;;27.08;16.77;;;;;;;9.46;40.46;103397.56;4992896;28;20465;-75
2022/01/18 03:18:23;;;;;;;28.07;15.97;;;;;;;9.38;40.75;103401.47;4991634;28;20493;-75
2022/01/18 03:20:49;;;;;;;21.27;15.25;;;;;;;9.41;40.58;103411.91;4993007;28;20118;-75
2022/01/18 03:23:19;;;;;;;34.93;17.57;;;;;;;9.39;40.55;103411.31;4992971;28;20397;-81
2022/01/18 03:28:20;;;;;;;35.70;16.17;;;;;;;9.37;40.69;103405.28;4992981;28;20080;-75
2022/01/18 03:30:54;;;;;;;25.87;15.03;;;;;;;9.42;40.72;103402.66;4991694;28;20499;-75
2022/01/18 03:33:31;;;;;;;28.63;15.90;;;;;;;9.47;40.83;103406.56;4991698;28;20457;-75
2022/01/18 03:36:00;;;;;;;25.57;14.90;;;;;;;9.52;40.77;103396.59;4992727;28;20046;-75
2022/01/18 03:38:30;;;;;;;25.60;15.77;;;;;;;9.55;40.79;103390.66;4992812;28;20037;-74
2022/01/18 03:41:04;;;;;;;23.35;15.15;;;;;;;9.52;41.03;103395.75;4992824;28;20041;-75
2022/01/18 03:43:34;;;;;;;25.77;17.87;;;;;;;9.52;40.96;103393.00;4992869;28;20026;-76
2022/01/18 03:46:02;;;;;;;27.23;16.17;;;;;;;9.57;40.94;103398.59;4996600;28;20030;-75
2022/01/18 03:48:32;;;;;;;26.25;15.32;;;;;;;9.56;41.09;103388.75;4996525;28;20026;-74
2022/01/18 03:50:59;;;;;;;27.05;15.65;;;;;;;9.56;41.24;103386.00;4996522;28;20022;-74
2022/01/18 03:53:25;;;;;;;25.40;15.53;;;;;;;9.52;41.21;103385.69;4996555;28;20022;-74
2022/01/18 03:55:52;;;;;;;24.80;14.70;;;;;;;9.53;41.28;103372.84;4996472;28;20037;-74
2022/01/18 03:58:18;;;;;;;33.80;18.10;;;;;;;9.54;41.20;103369.06;4996334;28;20026;-74
2022/01/18 04:00:44;;;;;;;31.13;16.83;;;;;;;9.57;41.27;103371.28;4996382;28;20089;-76
2022/01/18 04:03:09;;;;;;;32.75;14.75;;;;;;;9.58;41.28;103367.47;4996334;28;20018;-78
2022/01/18 04:05:35;;;;;;;28.20;17.07;;;;;;;9.59;41.26;103366.41;4995008;28;20117;-75
2022/01/18 04:08:02;;;;;;;28.33;17.13;;;;;;;9.60;41.28;103362.63;4995114;28;20026;-82
2022/01/18 04:10:31;;;;;;;29.03;17.43;;;;;;;9.59;41.27;103359.03;4996313;28;20093;-81
2022/01/18 04:12:56;;;;;;;27.77;15.95;;;;;;;9.59;41.41;103356.31;4994916;28;20034;-75
2022/01/18 04:15:23;;;;;;;35.50;19.90;;;;;;;9.59;41.26;103358.22;4994844;28;20030;-75
2022/01/18 04:26:05;;;;;;;29.80;16.00;;;;;;;9.45;41.54;103336.69;4995997;28;20417;-76
2022/01/18 04:28:42;;;;;;;30.00;18.42;;;;;;;9.44;41.45;103334.16;4995906;28;20469;-75
2022/01/18 04:31:11;;;;;;;28.27;16.90;;;;;;;9.44;41.52;103329.53;4995804;28;20062;-75
2022/01/18 04:33:39;;;;;;;28.40;18.17;;;;;;;9.44;41.42;103329.53;4995723;28;20076;-75
2022/01/18 04:36:06;;;;;;;27.27;17.75;;;;;;;9.48;41.41;103329.06;4995555;28;20141;-75
2022/01/18 04:38:33;;;;;;;30.50;18.70;;;;;;;9.52;41.34;103332.97;4995605;28;20034;-75
2022/01/18 04:41:04;;;;;;;36.25;19.45;;;;;;;9.54;41.43;103323.47;4995682;28;20038;-74
2022/01/18 04:48:50;;;;;;;31.15;16.85;;;;;;;9.63;41.36;103318.47;4995544;28;20130;-74
2022/01/18 04:51:19;;;;;;;24.85;17.85;;;;;;;9.66;41.29;103304.31;4995438;28;20027;-74
2022/01/18 04:54:07;;;;;;;29.35;18.05;;;;;;;9.71;41.39;103307.97;4995431;28;20094;-75
2022/01/18 04:59:11;;;;;;;30.40;18.30;;;;;;;9.58;41.70;103289.16;4995333;28;20054;-75
2022/01/18 05:01:39;;;;;;;30.53;18.20;;;;;;;9.59;41.53;103270.88;4995372;28;20418;-74
2022/01/18 05:04:08;;;;;;;29.92;19.40;;;;;;;9.59;41.65;103265.41;4995285;28;20031;-74
2022/01/18 05:06:37;;;;;;;32.47;17.58;;;;;;;9.58;41.74;103269.22;4995174;28;20026;-74
2022/01/18 05:09:09;;;;;;;30.08;16.52;;;;;;;9.56;41.65;103274.94;4993986;28;20023;-75
2022/01/18 05:11:45;;;;;;;31.90;18.93;;;;;;;9.62;41.38;103264.94;4993875;28;20034;-75
2022/01/18 05:14:26;;;;;;;23.17;16.33;;;;;;;9.64;41.42;103263.59;4995059;28;20038;-75
2022/01/18 05:25:15;;;;;;;25.55;17.42;;;;;;;9.56;41.64;103279.56;4994958;28;20037;-75
2022/01/18 05:27:41;;;;;;;29.92;17.70;;;;;;;9.53;41.61;103280.06;4994820;28;20110;-75
2022/01/18 05:30:10;;;;;;;30.70;16.27;;;;;;;9.50;41.68;103273.16;4994769;28;20105;-75
2022/01/18 05:32:38;;;;;;;26.90;17.15;;;;;;;9.52;41.44;103273.78;4994709;28;20030;-75
2022/01/18 05:35:09;;;;;;;34.85;18.20;;;;;;;9.43;41.51;103278.75;4994455;28;20049;-80
2022/01/18 05:37:37;;;;;;;30.98;16.67;;;;;;;9.42;41.51;103277.13;4994257;28;20031;-76
2022/01/18 05:40:03;;;;;;;32.17;17.80;;;;;;;9.47;41.41;103286.47;4993264;28;20018;-75
2022/01/18 05:42:29;;;;;;;28.67;16.80;;;;;;;9.51;41.36;103280.28;4994577;28;20027;-74
2022/01/18 05:44:57;;;;;;;25.75;16.75;;;;;;;9.55;41.44;103284.19;4994487;28;20036;-75
2022/01/18 05:47:24;;;;;;;31.00;17.57;;;;;;;9.61;41.38;103291.41;4994054;28;20103;-75
2022/01/18 05:49:49;;;;;;;25.77;15.00;;;;;;;9.60;41.39;103288.94;4993385;28;20113;-78
2022/01/18 05:52:15;;;;;;;40.90;17.80;;;;;;;9.68;41.25;103288.53;4994288;28;20146;-79
2022/01/18 05:54:40;;;;;;;26.63;16.00;;;;;;;9.64;41.34;103287.34;4994323;28;20026;-74
2022/01/18 05:57:11;;;;;;;29.92;15.77;;;;;;;9.64;41.53;103281.88;4994129;28;20053;-75
2022/01/18 05:59:39;;;;;;;25.50;15.00;;;;;;;9.64;41.50;103288.19;4994191;28;20070;-74
2022/01/18 06:02:17;;;;;;;25.17;14.52;;;;;;;9.74;41.39;103273.88;4994181;28;20172;-74
2022/01/18 06:07:28;;;;;;;26.63;11.97;;;;;;;9.92;41.74;103262.75;4993989;28;20049;-75
2022/01/18 06:10:01;;;;;;;26.93;13.03;;;;;;;10.01;41.80;103263.16;4993995;28;20027;-75
2022/01/18 06:12:30;;;;;;;26.67;13.07;;;;;;;10.11;42.23;103268.78;4994019;28;20038;-74
2022/01/18 06:14:57;;;;;;;24.40;13.50;;;;;;;10.25;42.22;103269.31;4993984;28;20105;-75
2022/01/18 06:17:25;;;;;;;27.85;10.65;;;;;;;10.38;42.18;103263.50;4992527;28;20026;-74
2022/01/18 06:19:51;;;;;;;23.98;10.65;;;;;;;10.44;42.60;103278.09;4993757;28;20030;-75
2022/01/18 06:22:19;;;;;;;23.73;10.82;;;;;;;10.60;42.53;103276.41;4992422;28;20401;-75
2022/01/18 06:24:45;;;;;;;21.75;10.32;;;;;;;10.62;42.60;103285.19;4993742;28;20054;-74
2022/01/18 06:27:14;;;;;;;20.38;10.38;;;;;;;10.69;42.48;103280.34;4993233;28;20022;-74
2022/01/18 06:29:39;;;;;;;25.25;11.10;;;;;;;10.72;42.49;103275.19;4993287;28;20030;-75
2022/01/18 06:32:06;;;;;;;21.67;10.75;;;;;;;10.66;43.06;103281.69;4993656;28;20408;-75
2022/01/18 06:34:32;;;;;;;26.85;10.45;;;;;;;10.75;42.84;103265.69;4993600;28;20092;-74
2022/01/18 06:36:58;;;;;;;19.42;9.00;;;;;;;10.81;42.79;103256.47;4993393;28;20533;-80
2022/01/18 06:39:29;;;;;;;23.00;10.30;;;;;;;10.76;42.94;103251.75;4993653;28;20023;-75
2022/01/18 06:41:55;;;;;;;24.33;9.75;;;;;;;10.76;43.03;103254.47;4993501;28;20645;-75
2022/01/18 06:44:24;;;;;;;18.85;10.25;;;;;;;10.41;43.98;103260.25;4987752;28;20027;-83
2022/01/18 06:46:50;;;;;;;14.20;9.47;;;;;;;10.60;43.44;103249.06;4973948;28;20038;-75
2022/01/18 06:49:15;;;;;;;22.98;10.32;;;;;;;10.69;43.35;103253.00;4972695;28;20273;-75
2022/01/18 06:51:41;;;;;;;27.42;10.75;;;;;;;10.67;43.72;103256.00;4973603;28;20037;-75
2022/01/18 06:54:16;;;;;;;22.35;8.98;;;;;;;10.78;43.40;103256.97;4974100;28;20027;-75
2022/01/18 06:56:47;;;;;;;23.45;9.98;;;;;;;10.88;43.39;103264.47;4973824;28;20097;-75
2022/01/18 06:59:13;;;;;;;18.00;8.98;;;;;;;10.90;43.38;103262.31;4973819;28;20607;-83
2022/01/18 07:01:40;;;;;;;19.77;9.23;;;;;;;10.92;43.30;103262.88;4973764;28;20506;-75
2022/01/18 07:04:08;;;;;;;20.48;10.65;;;;;;;10.85;43.54;103271.28;4973651;28;20027;-76
2022/01/18 07:06:34;;;;;;;21.00;10.40;;;;;;;10.71;43.44;103264.53;4973770;28;20026;-75
2022/01/18 07:09:03;;;;;;;15.10;10.02;;;;;;;10.65;43.52;103260.06;4973888;28;20485;-83
2022/01/18 07:11:31;;;;;;;20.77;11.77;;;;;;;10.65;43.42;103260.06;4973753;28;20030;-83
2022/01/18 07:13:57;;;;;;;18.88;12.00;;;;;;;10.70;43.53;103257.41;4973554;28;20030;-75
2022/01/18 07:16:25;;;;;;;23.67;12.05;;;;;;;10.89;43.16;103253.28;4973578;28;20030;-76
2022/01/18 07:18:52;;;;;;;25.35;11.70;;;;;;;10.86;43.30;103259.25;4973951;28;20027;-82
2022/01/18 07:21:18;;;;;;;26.95;11.13;;;;;;;10.94;43.35;103261.53;4977562;28;20034;-74
2022/01/18 07:23:44;;;;;;;24.27;11.15;;;;;;;10.99;43.42;103252.59;4977545;28;20019;-80
2022/01/18 07:26:09;;;;;;;27.23;11.27;;;;;;;11.03;43.34;103262.78;4976265;28;20489;-74
2022/01/18 07:28:37;;;;;;;23.38;11.35;;;;;;;11.01;43.36;103258.63;4977455;28;20058;-73
2022/01/18 07:31:03;;;;;;;21.85;11.40;;;;;;;11.00;43.28;103257.81;4977454;28;20169;-74
2022/01/18 07:33:28;;;;;;;17.95;10.23;;;;;;;10.98;43.42;103259.97;4977292;28;20058;-73
2022/01/18 07:35:54;;;;;;;19.75;11.20;;;;;;;11.03;43.41;103257.31;4977146;28;20058;-73
2022/01/18 07:38:19;;;;;;;23.50;12.75;;;;;;;11.01;43.23;103244.94;4977206;28;20069;-73
2022/01/18 07:40:47;;;;;;;19.50;10.32;;;;;;;10.94;43.43;103247.88;4977348;28;20114;-73
2022/01/18 07:43:18;;;;;;;19.77;11.07;;;;;;;11.03;43.15;103259.19;4977204;28;20105;-76
2022/01/18 07:45:45;;;;;;;21.08;10.15;;;;;;;11.02;43.34;103252.88;4983626;28;20469;-75
2022/01/18 07:48:13;;;;;;;27.55;11.13;;;;;;;10.98;43.97;103251.75;4994299;28;20030;-74
2022/01/18 07:50:40;;;;;;;27.92;10.43;;;;;;;11.04;43.87;103242.53;4996404;28;20105;-75
2022/01/18 07:53:06;;;;;;;17.92;10.75;;;;;;;11.04;43.95;103245.28;4995144;28;20034;-77
2022/01/18 07:55:34;;;;;;;24.60;12.07;;;;;;;11.13;43.83;103250.28;4994811;28;20034;-74
2022/01/18 07:58:00;;;;;;;21.38;11.07;;;;;;;11.18;43.57;103244.88;4980453;28;20503;-74
2022/01/18 08:00:29;;;;;;;16.75;10.68;;;;;;;11.33;43.52;103236.81;4979761;28;20026;-74
2022/01/18 08:02:55;;;;;;;26.20;11.45;;;;;;;11.36;43.51;103236.31;4980416;28;20037;-74
2022/01/18 08:05:21;;;;;;;17.95;9.80;;;;;;;11.34;43.89;103233.84;4981751;28;20030;-75
2022/01/18 08:07:47;;;;;;;16.73;10.35;;;;;;;11.43;43.63;103234.22;4981959;28;20084;-74
2022/01/18 08:10:17;;;;;;;24.77;10.98;;;;;;;11.43;43.72;103244.34;4980388;28;20488;-74
2022/01/18 08:12:49;;;;;;;;;;;;;;;11.32;43.95;103237.91;4979684;28;20022;-74
2022/01/18 08:15:21;;;;;;;16.08;9.48;;;;;;;11.47;43.63;103235.34;4978454;28;19948;-73
2022/01/18 08:17:51;;;;;;;19.73;9.77;;;;;;;11.50;44.01;103237.56;4981064;28;20022;-74
2022/01/18 08:20:21;;;;;;;29.58;12.13;;;;;;;11.47;44.10;103232.59;4980634;28;20105;-72
2022/01/18 08:22:55;;;;;;;19.65;10.48;;;;;;;11.63;43.59;103212.47;4979305;28;20069;-77
2022/01/18 08:25:23;;;;;;;21.35;8.80;;;;;;;11.53;43.97;103189.66;4980545;28;20133;-72
2022/01/18 08:27:50;;;;;;;26.00;11.65;;;;;;;11.59;44.06;103186.72;4981402;28;20030;-70
2022/01/18 08:30:17;;;;;;;20.20;8.65;;;;;;;11.62;44.31;103194.41;5000064;28;20065;-70
2022/01/18 08:32:45;;;;;;;20.63;7.65;;;;;;;11.62;44.84;103185.38;4999743;28;20026;-70
2022/01/18 08:35:13;;;;;;;13.20;7.55;;;;;;;11.87;45.06;103179.31;4998683;28;20045;-70
2022/01/18 08:37:39;;;;;;;15.88;7.68;;;;;;;12.11;44.58;103191.56;4987058;28;20037;-70
2022/01/18 08:40:06;;;;;;;18.02;6.95;;;;;;;12.20;44.62;103194.63;4979890;28;20034;-70
2022/01/18 08:42:31;;;;;;;21.30;8.32;;;;;;;12.27;44.78;103205.34;4977296;28;20030;-70
2022/01/18 08:44:57;;;;;;;21.58;8.20;;;;;;;12.42;44.46;103227.38;4979333;28;20038;-72
2022/01/18 08:47:25;;;;;;;27.85;7.57;;;;;;;12.50;43.97;103221.41;4982515;28;21037;-71
2022/01/18 08:49:52;;;;;;;18.85;7.43;;;;;;;12.41;44.42;103201.06;4993911;28;20042;-77
2022/01/18 08:52:18;;;;;;;15.00;7.68;;;;;;;12.35;44.45;103210.34;5012257;28;20034;-71
2022/01/18 08:54:47;;;;;;;17.58;7.55;;;;;;;12.31;44.34;103195.50;4999124;28;20026;-72
2022/01/18 08:57:14;;;;;;;15.07;6.93;;;;;;;12.32;44.46;103175.22;4999505;28;20049;-71
2022/01/18 08:59:40;;;;;;;19.02;7.47;;;;;;;12.30;44.47;103196.59;5000393;28;20030;-72
2022/01/18 09:02:08;;;;;;;29.02;8.95;;;;;;;12.25;44.83;103196.56;4998138;28;20057;-72
2022/01/18 09:04:34;;;;;;;16.13;8.52;;;;;;;12.34;44.06;103203.22;4980759;28;20033;-73
2022/01/18 09:07:06;;;;;;;20.88;8.45;;;;;;;12.35;44.33;103205.69;4979754;28;20109;-78
2022/01/18 09:09:35;;;;;;;12.95;7.47;;;;;;;12.37;44.38;103208.16;4978420;28;20030;-74
2022/01/18 09:12:01;;;;;;;18.40;8.10;;;;;;;12.28;44.58;103216.06;4979441;28;20026;-73
2022/01/18 09:14:27;;;;;;;17.15;8.10;;;;;;;12.31;44.42;103228.38;4978150;28;20568;-76
2022/01/18 09:16:52;;;;;;;22.45;9.00;;;;;;;12.54;44.17;103229.91;4986252;28;20156;-72
2022/01/18 09:19:18;;;;;;;23.42;10.32;;;;;;;12.42;44.53;103232.88;4994788;28;20034;-72
2022/01/18 09:21:47;;;;;;;17.00;7.65;;;;;;;12.60;43.90;103228.84;4993672;28;20034;-79
2022/01/18 09:24:13;;;;;;;22.40;8.05;;;;;;;12.64;43.79;103233.53;4994384;28;20493;-72
2022/01/18 09:26:38;;;;;;;15.80;8.77;;;;;;;12.62;43.89;103226.66;4994756;28;20030;-71
2022/01/18 09:29:06;;;;;;;18.42;8.20;;;;;;;12.69;43.42;103235.47;4994725;28;20444;-72
2022/01/18 09:31:35;;;;;;;17.30;8.27;;;;;;;12.64;43.57;103221.75;4994640;28;20081;-72
2022/01/18 09:34:00;;;;;;;14.63;7.90;;;;;;;12.64;43.58;103227.22;4994546;28;20038;-72
2022/01/18 09:36:28;;;;;;;16.05;7.72;;;;;;;12.61;43.88;103242.28;4992767;28;20109;-72
2022/01/18 09:38:54;;;;;;;22.30;8.98;;;;;;;12.52;43.89;103235.66;4994114;28;20062;-72
2022/01/18 09:41:22;;;;;;;17.50;7.80;;;;;;;12.46;44.03;103253.16;4993995;28;20065;-72
2022/01/18 09:43:48;;;;;;;19.17;8.32;;;;;;;12.39;44.00;103253.44;4993676;28;20110;-72
2022/01/18 09:46:16;;;;;;;14.98;7.47;;;;;;;12.29;44.11;103275.25;4993130;28;20165;-73
2022/01/18 09:48:41;;;;;;;19.15;8.38;;;;;;;12.25;44.53;103279.63;4994216;28;20030;-72
2022/01/18 09:51:09;;;;;;;19.67;7.40;;;;;;;12.39;44.27;103289.06;4994337;28;20084;-72
2022/01/18 09:53:37;;;;;;;15.10;7.35;;;;;;;12.59;44.32;103273.81;4994216;28;20034;-78
2022/01/18 09:56:03;;;;;;;22.17;8.48;;;;;;;12.72;44.33;103265.94;4994092;28;20473;-78
2022/01/18 09:58:29;;;;;;;17.02;8.48;;;;;;;12.80;44.36;103267.38;4992784;28;20044;-72
2022/01/18 10:00:57;;;;;;;18.50;9.25;;;;;;;12.94;44.26;103274.03;4978630;28;20030;-73
2022/01/18 10:03:34;;;;;;;20.25;7.88;;;;;;;13.12;44.42;103280.94;4978134;28;20133;-72
2022/01/18 10:06:02;;;;;;;20.63;8.70;;;;;;;13.19;44.61;103266.97;4986854;28;20476;-74
2022/01/18 10:08:30;;;;;;;15.15;7.93;;;;;;;13.37;44.39;103263.75;4992011;28;20034;-73
2022/01/18 10:11:02;;;;;;;20.10;7.00;;;;;;;13.46;44.46;103264.06;4980073;28;20388;-73
2022/01/18 10:13:34;;;;;;;14.55;6.65;;;;;;;13.51;44.26;103250.34;4993773;28;20480;-72
2022/01/18 10:16:11;;;;;;;19.45;6.63;;;;;;;13.67;44.17;103263.00;4993849;28;20476;-72
2022/01/18 10:18:44;;;;;;;16.52;7.22;;;;;;;13.77;44.36;103252.03;4993639;28;20042;-71
2022/01/18 10:21:12;;;;;;;15.35;7.90;;;;;;;13.86;44.20;103250.38;4993629;28;20113;-73
2022/01/18 10:23:38;;;;;;;16.83;8.02;;;;;;;14.02;44.45;103251.22;4992359;28;20440;-73
2022/01/18 10:26:22;;;;;;;17.15;7.18;;;;;;;14.02;43.97;103253.97;4995389;28;20084;-73
2022/01/18 10:29:02;;;;;;;14.05;7.28;;;;;;;14.04;44.38;103259.16;4997924;28;20030;-74
2022/01/18 10:31:40;;;;;;;15.02;6.43;;;;;;;14.12;44.19;103261.38;4995650;28;20440;-73
2022/01/18 10:36:59;;;;;;;16.83;7.57;;;;;;;14.21;44.28;103256.97;4977249;28;20042;-73
2022/01/18 10:39:39;;;;;;;16.35;7.97;;;;;;;14.08;44.74;103238.28;4977431;28;20034;-73
2022/01/18 10:42:26;;;;;;;17.25;7.82;;;;;;;14.31;44.20;103237.72;4976744;28;20076;-82
2022/01/18 10:45:09;;;;;;;13.48;9.40;;;;;;;14.29;44.26;103231.69;4977786;28;20036;-73
2022/01/18 10:47:51;;;;;;;19.67;11.30;;;;;;;14.48;44.16;103229.19;4983722;28;20022;-79
2022/01/18 10:50:19;;;;;;;12.90;6.93;;;;;;;14.35;44.26;103225.03;4993219;28;20038;-73
2022/01/18 10:52:57;;;;;;;31.80;13.65;;;;;;;14.44;44.06;103217.06;4993052;28;20030;-72
2022/01/18 10:55:27;;;;;;;18.95;8.82;;;;;;;14.48;43.83;103209.09;4993274;28;20109;-72
2022/01/18 10:58:08;;;;;;;16.23;9.88;;;;;;;14.52;44.10;103215.69;4993066;28;20657;-73
2022/01/18 11:00:35;;;;;;;20.23;13.75;;;;;;;14.60;44.04;103209.63;4992930;28;20113;-74
2022/01/18 11:03:06;;;;;;;20.65;13.05;;;;;;;14.44;44.37;103217.06;4992469;28;20385;-73
2022/01/18 11:05:34;;;;;;;17.95;11.30;;;;;;;14.66;44.17;103213.97;4992246;28;20117;-75
2022/01/18 11:08:04;;;;;;;16.17;11.00;;;;;;;14.83;43.89;103208.97;4991687;28;20030;-73
2022/01/18 11:10:37;;;;;;;;;;;;;;;14.79;44.07;103205.13;4991656;28;20038;-72
2022/01/18 11:13:11;;;;;;;17.38;10.35;;;;;;;14.91;43.79;103205.63;4991863;28;19913;-72
2022/01/18 11:15:41;;;;;;;17.67;8.82;;;;;;;14.91;43.82;103202.88;4992824;28;20033;-73
2022/01/18 11:18:14;;;;;;;;;;;;;;;14.99;44.09;103188.53;4993003;28;20125;-73
2022/01/18 11:20:44;;;;;;;18.52;8.57;;;;;;;15.23;43.84;103191.41;4992752;28;19917;-72
2022/01/18 11:23:11;;;;;;;17.73;7.57;;;;;;;15.31;43.44;103184.47;4992908;28;20061;-73
2022/01/18 11:25:38;;;;;;;14.57;7.75;;;;;;;15.35;43.80;103191.06;4992854;28;20552;-72
2022/01/18 11:28:07;;;;;;;19.92;8.95;;;;;;;15.45;43.64;103202.00;4992874;28;20030;-73
2022/01/18 11:30:37;;;;;;;18.42;7.18;;;;;;;15.45;43.88;103193.75;4992726;28;20436;-73
2022/01/18 11:33:11;;;;;;;18.38;6.95;;;;;;;15.53;43.78;103197.81;4991461;28;20027;-73
2022/01/18 11:36:02;;;;;;;14.07;6.50;;;;;;;15.56;43.78;103194.47;4992540;28;20050;-72
2022/01/18 11:38:40;;;;;;;24.63;14.52;;;;;;;15.52;43.97;103193.41;4992688;28;20030;-73
2022/01/18 11:41:25;;;;;;;56.75;38.35;;;;;;;15.57;44.16;103189.78;4992813;28;20030;-72
2022/01/18 11:43:53;;;;;;;35.35;18.02;;;;;;;15.71;43.67;103182.53;4991031;28;20027;-72
2022/01/18 11:46:31;;;;;;;27.40;15.93;;;;;;;15.78;44.06;103183.03;4992341;28;20030;-73
2022/01/18 11:49:03;;;;;;;31.67;17.00;;;;;;;15.82;44.29;103175.84;4992768;28;20038;-72
2022/01/18 11:51:48;;;;;;;15.43;6.40;;;;;;;16.11;44.03;103162.06;4992618;28;20018;-72
2022/01/18 11:54:27;;;;;;;17.73;6.40;;;;;;;16.24;44.26;103157.75;4992730;28;20412;-72
2022/01/18 11:56:53;;;;;;;18.85;6.32;;;;;;;16.47;44.02;103156.09;4992568;28;20098;-73
2022/01/18 11:59:25;;;;;;;13.85;5.80;;;;;;;16.61;43.97;103152.34;4992740;28;20034;-73
2022/01/18 12:01:58;;;;;;;10.55;6.18;;;;;;;16.72;43.83;103149.50;4992638;28;20037;-73
2022/01/18 12:07:09;;;;;;;15.32;5.05;;;;;;;17.04;43.86;103148.78;4996294;28;20523;-72
2022/01/18 12:09:39;;;;;;;;;;;;;;;17.02;43.93;103140.78;4996694;28;20026;-72
2022/01/18 12:12:42;;;;;;;10.57;5.53;;;;;;;17.21;43.76;103138.00;4996147;28;19988;-72
2022/01/18 12:15:17;;;;;;;16.33;4.60;;;;;;;17.65;43.06;103122.91;4991393;28;20038;-73
2022/01/18 12:17:48;;;;;;;14.15;6.00;;;;;;;17.60;43.21;103121.03;4994697;28;20026;-72
2022/01/18 12:20:32;;;;;;;15.27;4.47;;;;;;;17.46;43.30;103109.97;4995982;28;20030;-72
2022/01/18 12:23:02;;;;;;;13.73;5.85;;;;;;;17.66;42.97;103111.53;4996002;28;20358;-72
2022/01/18 12:25:31;;;;;;;7.43;3.97;;;;;;;17.58;43.31;103106.72;4996201;28;20026;-72
2022/01/18 12:28:16;;;;;;;10.82;4.20;;;;;;;17.65;43.29;103109.91;4995871;28;20065;-72
2022/01/18 12:31:04;;;;;;;13.43;3.97;;;;;;;17.68;42.96;103117.59;4995704;28;20109;-72
2022/01/18 12:33:46;;;;;;;11.20;4.88;;;;;;;17.64;43.05;103116.56;4995768;28;20389;-72
2022/01/18 12:36:28;;;;;;;8.57;4.43;;;;;;;17.79;42.88;103117.44;4995560;28;20497;-72
2022/01/18 12:38:58;;;;;;;9.75;4.10;;;;;;;17.78;42.98;103107.50;4995552;28;20135;-73
2022/01/18 12:41:40;;;;;;;12.80;4.57;;;;;;;17.59;42.83;103100.06;4995555;28;20030;-72
2022/01/18 12:44:24;;;;;;;13.43;4.30;;;;;;;17.83;43.02;103093.56;4994075;28;20034;-73
2022/01/18 12:47:00;;;;;;;9.95;3.65;;;;;;;17.98;42.60;103087.75;4994909;28;20026;-74